createdAt,value
2022-12-18T00:02:12.214Z,72.32
2022-12-18T00:07:15.641Z,72.46
2022-12-18T00:17:26.753Z,76.01
2022-12-18T00:22:29.755Z,74.02
2022-12-18T00:27:32.761Z,74.27
2022-12-18T00:32:35.864Z,75.27
2022-12-18T00:37:38.971Z,77.02
2022-12-18T00:42:57.434Z,73.62
2022-12-18T00:48:00.643Z,72.68
2022-12-18T00:53:03.952Z,71.24
2022-12-18T00:58:07.672Z,72.23
2022-12-18T01:03:11.020Z,71.91
2022-12-18T01:08:14.190Z,70.80
2022-12-18T01:13:17.295Z,71.11
2022-12-18T01:18:20.298Z,72.66
2022-12-18T01:23:23.405Z,72.79
2022-12-18T01:28:26.518Z,72.39
2022-12-18T01:33:29.615Z,73.32
2022-12-18T01:38:32.824Z,74.83
2022-12-18T01:43:46.475Z,75.17
2022-12-18T01:48:51.898Z,74.75
2022-12-18T01:53:55.453Z,74.57
2022-12-18T01:59:07.258Z,74.96
2022-12-18T02:04:36.479Z,74.78
2022-12-18T02:09:47.876Z,76.01
2022-12-18T02:14:56.536Z,77.94
2022-12-18T02:20:14.420Z,77.46
2022-12-18T02:25:17.364Z,78.82
2022-12-18T02:30:20.984Z,78.44
2022-12-18T02:35:26.036Z,76.61
2022-12-18T02:40:29.762Z,76.27
2022-12-18T02:45:32.876Z,75.79
2022-12-18T02:50:39.449Z,74.37
2022-12-18T02:55:50.949Z,73.61
2022-12-18T03:00:59.190Z,73.90
2022-12-18T03:06:08.013Z,74.00
2022-12-18T03:11:12.244Z,73.99
2022-12-18T03:16:26.762Z,73.85
2022-12-18T03:21:33.309Z,74.82
2022-12-18T03:26:38.769Z,74.74
2022-12-18T03:31:43.203Z,75.51
2022-12-18T03:36:46.515Z,75.42
2022-12-18T03:41:57.199Z,75.52
2022-12-18T03:47:29.804Z,75.62
2022-12-18T03:52:42.219Z,77.89
2022-12-18T03:57:45.733Z,76.82
2022-12-18T04:02:53.179Z,75.58
2022-12-18T04:07:57.372Z,74.94
2022-12-18T04:13:00.373Z,74.29
2022-12-18T04:18:03.682Z,74.53
2022-12-18T04:23:06.789Z,74.45
2022-12-18T04:28:09.892Z,75.73
2022-12-18T04:33:13.510Z,77.14
2022-12-18T04:38:16.720Z,77.09
2022-12-18T04:43:19.951Z,77.36
2022-12-18T04:48:23.237Z,77.31
2022-12-18T04:53:26.138Z,77.45
2022-12-18T04:58:29.242Z,77.04
2022-12-18T05:03:32.713Z,77.28
2022-12-18T05:08:35.760Z,77.61
2022-12-18T05:13:39.675Z,78.04
2022-12-18T05:18:43.096Z,79.07
2022-12-18T05:23:46.817Z,79.67
2022-12-18T05:28:49.819Z,79.64
2022-12-18T05:33:52.823Z,78.44
2022-12-18T05:38:55.926Z,79.67
2022-12-18T05:43:59.749Z,80.83
2022-12-18T05:49:02.870Z,80.23
2022-12-18T05:54:05.960Z,80.42
2022-12-18T05:59:11.113Z,78.96
2022-12-18T06:04:14.462Z,77.11
2022-12-18T06:09:17.528Z,77.66
2022-12-18T06:14:20.633Z,79.96
2022-12-18T06:19:23.743Z,80.33
2022-12-18T06:24:27.048Z,80.17
2022-12-18T06:29:30.152Z,79.37
2022-12-18T06:34:33.875Z,77.64
2022-12-18T06:39:36.980Z,77.37
2022-12-18T06:44:40.088Z,80.29
2022-12-18T06:49:43.196Z,78.38
2022-12-18T06:54:46.213Z,77.32
2022-12-18T06:59:49.813Z,76.60
2022-12-18T07:04:52.836Z,76.97
2022-12-18T07:09:55.962Z,76.65
2022-12-18T07:14:58.991Z,75.65
2022-12-18T07:20:02.538Z,74.83
2022-12-18T07:25:06.670Z,73.14
2022-12-18T07:30:10.693Z,74.19
2022-12-18T07:35:14.011Z,73.14
2022-12-18T07:40:17.519Z,71.30
2022-12-18T07:45:20.726Z,70.71
2022-12-18T07:50:25.267Z,72.80
2022-12-18T07:55:28.507Z,72.49
2022-12-18T08:00:32.820Z,71.36
2022-12-18T08:05:36.323Z,69.54
2022-12-18T08:10:40.458Z,67.34
2022-12-18T08:15:43.660Z,64.54
2022-12-18T08:20:46.866Z,65.05
2022-12-18T08:25:51.201Z,64.91
2022-12-18T08:30:54.450Z,65.56
2022-12-18T08:35:59.562Z,65.28
2022-12-18T08:41:03.499Z,62.44
2022-12-18T08:46:06.640Z,58.72
2022-12-18T08:51:10.923Z,59.00
2022-12-18T08:56:14.751Z,61.35
2022-12-18T09:01:18.514Z,61.67
2022-12-18T09:06:22.702Z,61.14
2022-12-18T09:11:27.034Z,62.32
2022-12-18T09:16:33.035Z,63.91
2022-12-18T09:21:37.502Z,65.37
2022-12-18T09:26:40.853Z,65.39
2022-12-18T09:31:46.929Z,67.31
2022-12-18T09:36:50.447Z,68.70
2022-12-18T09:41:56.107Z,65.94
2022-12-18T09:47:09.658Z,65.25
2022-12-18T09:52:15.835Z,64.92
2022-12-18T09:57:21.504Z,64.74
2022-12-18T10:02:26.041Z,66.20
2022-12-18T10:07:35.288Z,69.41
2022-12-18T10:13:04.050Z,69.20
2022-12-18T10:18:21.705Z,68.24
2022-12-18T10:23:47.846Z,67.12
2022-12-18T10:28:52.530Z,70.21
2022-12-18T10:33:55.738Z,67.25
2022-12-18T10:39:18.049Z,66.60
2022-12-18T10:44:21.512Z,67.28
2022-12-18T10:49:27.498Z,67.68
2022-12-18T10:54:32.112Z,67.41
2022-12-18T10:59:50.687Z,65.52
2022-12-18T11:04:54.304Z,64.41
2022-12-18T11:10:05.096Z,64.95
2022-12-18T11:15:17.463Z,66.16
2022-12-18T11:20:23.999Z,66.65
2022-12-18T11:25:33.339Z,66.90
2022-12-18T11:30:38.345Z,67.12
2022-12-18T11:35:41.405Z,67.49
2022-12-18T11:40:47.170Z,67.34
2022-12-18T11:45:53.144Z,68.54
2022-12-18T11:50:57.987Z,67.99
2022-12-18T11:56:01.195Z,68.31
2022-12-18T12:01:23.277Z,70.66
2022-12-18T12:06:34.441Z,71.50
2022-12-18T12:12:01.738Z,68.18
2022-12-18T12:17:08.198Z,65.62
2022-12-18T12:22:19.702Z,66.28
2022-12-18T12:27:26.695Z,66.55
2022-12-18T12:32:35.638Z,67.14
2022-12-18T12:37:56.868Z,67.97
2022-12-18T12:43:13.797Z,68.22
2022-12-18T12:48:32.733Z,68.17
2022-12-18T12:53:37.727Z,68.92
2022-12-18T12:59:01.750Z,69.66
2022-12-18T13:04:05.083Z,69.96
2022-12-18T13:09:08.957Z,71.15
2022-12-18T13:14:33.167Z,71.43
2022-12-18T13:19:36.875Z,71.45
2022-12-18T13:24:39.977Z,72.07
2022-12-18T13:29:47.422Z,72.64
2022-12-18T13:35:11.382Z,72.95
2022-12-18T13:40:43.466Z,73.38
2022-12-18T13:46:06.754Z,73.35
2022-12-18T13:51:11.178Z,72.99
2022-12-18T13:56:18.287Z,73.65
2022-12-18T14:01:25.661Z,74.30
2022-12-18T14:06:29.301Z,75.58
2022-12-18T14:11:34.976Z,75.99
2022-12-18T14:16:42.089Z,76.46
2022-12-18T14:21:47.732Z,77.06
2022-12-18T14:26:51.456Z,77.57
2022-12-18T14:32:09.403Z,78.24
2022-12-18T14:37:16.912Z,78.17
2022-12-18T14:42:20.021Z,78.67
2022-12-18T14:47:23.740Z,78.87
2022-12-18T14:52:28.997Z,78.87
2022-12-18T14:57:36.915Z,79.10
2022-12-18T15:02:40.327Z,79.33
2022-12-18T15:07:44.968Z,79.36
2022-12-18T15:12:50.742Z,79.38
2022-12-18T15:17:59.581Z,79.69
2022-12-18T15:23:02.884Z,79.35
2022-12-18T15:28:17.462Z,79.09
2022-12-18T15:33:25.962Z,79.22
2022-12-18T15:38:29.112Z,78.94
2022-12-18T15:43:35.993Z,78.96
2022-12-18T15:48:43.710Z,79.27
2022-12-18T15:53:47.738Z,79.81
2022-12-18T15:58:50.840Z,80.89
2022-12-18T16:03:55.133Z,81.20
2022-12-18T16:08:58.587Z,81.10
2022-12-18T16:14:01.507Z,81.36
2022-12-18T16:19:05.107Z,82.03
2022-12-18T16:24:14.559Z,81.84
2022-12-18T16:29:17.564Z,81.54
2022-12-18T16:34:27.099Z,81.24
2022-12-18T16:39:33.194Z,81.08
2022-12-18T16:44:37.574Z,81.04
2022-12-18T16:49:40.637Z,81.99
2022-12-18T16:54:43.740Z,82.31
2022-12-18T16:59:47.264Z,82.14
2022-12-18T17:04:50.467Z,81.96
2022-12-18T17:09:54.509Z,82.04
2022-12-18T17:14:57.494Z,81.95
2022-12-18T17:20:01.223Z,81.79
2022-12-18T17:25:07.599Z,82.04
2022-12-18T17:30:12.187Z,82.77
2022-12-18T17:35:15.557Z,82.89
2022-12-18T17:40:19.064Z,82.55
2022-12-18T17:45:22.373Z,82.37
2022-12-18T17:50:26.198Z,82.41
2022-12-18T17:55:29.918Z,82.45
2022-12-18T18:00:34.149Z,82.26
2022-12-18T18:05:37.357Z,82.10
2022-12-18T18:10:41.182Z,82.36
2022-12-18T18:15:45.326Z,82.62
2022-12-18T18:20:49.465Z,82.59
2022-12-18T18:25:55.820Z,82.48
2022-12-18T18:30:59.545Z,82.38
2022-12-18T18:36:03.058Z,82.19
2022-12-18T18:41:06.673Z,81.96
2022-12-18T18:46:11.875Z,82.04
2022-12-18T18:51:21.500Z,83.34
2022-12-18T19:01:52.937Z,82.05
2022-12-18T19:06:56.206Z,81.04
2022-12-18T19:12:18.862Z,79.62
2022-12-18T19:17:26.389Z,79.30
2022-12-18T19:22:35.304Z,79.31
2022-12-18T19:27:40.327Z,78.74
2022-12-18T19:32:44.712Z,78.81
2022-12-18T19:37:48.803Z,78.96
2022-12-18T19:42:52.248Z,80.09
2022-12-18T19:47:59.737Z,79.92
2022-12-18T19:53:07.573Z,79.20
2022-12-18T19:58:13.033Z,79.10
2022-12-18T20:03:25.422Z,80.61
2022-12-18T20:08:33.994Z,79.84
2022-12-18T20:13:37.676Z,79.00
2022-12-18T20:18:41.585Z,78.37
2022-12-18T20:23:45.969Z,78.02
2022-12-18T20:28:49.282Z,78.35
2022-12-18T20:33:53.388Z,79.38
2022-12-18T20:39:00.569Z,81.75
2022-12-18T20:44:05.867Z,81.26
2022-12-18T20:49:13.094Z,79.04
2022-12-18T20:54:16.479Z,77.89
2022-12-18T20:59:20.014Z,78.05
2022-12-18T21:04:23.815Z,78.59
2022-12-18T21:09:27.338Z,78.48
2022-12-18T21:14:34.128Z,79.93
2022-12-18T21:19:37.644Z,79.08
2022-12-18T21:24:41.158Z,79.02
2022-12-18T21:29:44.265Z,78.64
2022-12-18T21:34:48.549Z,78.40
2022-12-18T21:39:52.213Z,78.51
2022-12-18T21:44:55.318Z,78.01
2022-12-18T21:49:58.456Z,78.25
2022-12-18T21:55:08.466Z,79.62
2022-12-18T22:00:18.971Z,80.77
2022-12-18T22:05:23.617Z,81.11
2022-12-18T22:10:26.933Z,80.81
2022-12-18T22:15:30.373Z,81.67
2022-12-18T22:20:33.446Z,81.82
2022-12-18T22:25:39.263Z,81.42
2022-12-18T22:30:43.469Z,81.33
2022-12-18T22:35:46.965Z,81.46
2022-12-18T22:40:50.781Z,81.60
2022-12-18T22:45:54.147Z,82.68
2022-12-18T22:50:59.009Z,82.50
2022-12-18T22:56:03.286Z,81.43
2022-12-18T23:01:07.240Z,81.04
2022-12-18T23:06:10.814Z,81.02
2022-12-18T23:11:14.948Z,81.63
2022-12-18T23:16:20.842Z,83.23
2022-12-18T23:21:24.431Z,80.93
2022-12-18T23:26:28.873Z,78.51
2022-12-18T23:31:33.581Z,78.80
2022-12-18T23:36:45.715Z,77.97
2022-12-18T23:41:49.964Z,76.57
2022-12-18T23:46:53.269Z,75.06
2022-12-18T23:51:56.480Z,73.52
2022-12-18T23:56:59.585Z,73.45
